createdAt,value
2019-02-26T00:00:49.672Z,7.77
2019-02-26T00:03:19.867Z,6.60
2019-02-26T00:05:49.865Z,5.10
2019-02-26T00:08:19.479Z,5.43
2019-02-26T00:10:46.342Z,5.03
2019-02-26T00:13:14.134Z,4.90
2019-02-26T00:15:43.242Z,5.73
2019-02-26T00:18:11.721Z,6.80
2019-02-26T00:20:41.395Z,8.17
2019-02-26T00:23:09.194Z,8.80
2019-02-26T00:25:37.064Z,8.93
2019-02-26T00:28:05.425Z,9.50
2019-02-26T00:30:35.565Z,10.07
2019-02-26T00:33:05.159Z,9.27
2019-02-26T00:35:32.381Z,9.10
2019-02-26T00:37:59.897Z,9.07
2019-02-26T00:40:27.368Z,8.77
2019-02-26T00:42:57.554Z,9.43
2019-02-26T00:45:26.973Z,8.27
2019-02-26T00:47:53.936Z,8.03
2019-02-26T00:50:21.252Z,7.33
2019-02-26T00:52:48.615Z,6.23
2019-02-26T00:55:17.702Z,6.50
2019-02-26T00:57:45.210Z,6.63
2019-02-26T01:00:13.462Z,7.00
2019-02-26T01:02:40.886Z,7.30
2019-02-26T01:05:09.142Z,6.33
2019-02-26T01:07:38.000Z,7.30
2019-02-26T01:10:05.952Z,7.00
2019-02-26T01:12:37.104Z,6.90
2019-02-26T01:15:04.947Z,6.83
2019-02-26T01:17:33.380Z,6.73
2019-02-26T01:20:05.363Z,6.57
2019-02-26T01:22:33.071Z,7.37
2019-02-26T01:25:02.129Z,6.40
2019-02-26T01:27:29.807Z,6.20
2019-02-26T01:29:58.155Z,6.37
2019-02-26T01:32:27.548Z,6.33
2019-02-26T01:34:54.906Z,6.30
2019-02-26T01:37:22.269Z,5.60
2019-02-26T01:39:51.739Z,5.90
2019-02-26T01:42:24.240Z,6.87
2019-02-26T01:44:49.201Z,5.90
2019-02-26T01:47:17.809Z,7.37
2019-02-26T01:49:48.442Z,6.07
2019-02-26T01:52:17.281Z,6.45
2019-02-26T01:54:45.549Z,6.50
2019-02-26T01:57:12.983Z,6.10
2019-02-26T01:59:40.655Z,5.78
2019-02-26T02:02:12.158Z,6.07
2019-02-26T02:04:39.352Z,6.07
2019-02-26T02:07:06.852Z,6.43
2019-02-26T02:09:34.348Z,5.80
2019-02-26T02:12:03.894Z,5.83
2019-02-26T02:14:31.782Z,5.33
2019-02-26T02:17:00.887Z,7.10
2019-02-26T02:19:30.189Z,5.83
2019-02-26T02:21:58.331Z,6.17
2019-02-26T02:24:26.092Z,7.58
2019-02-26T02:26:55.481Z,6.80
2019-02-26T02:29:24.546Z,6.47
2019-02-26T02:31:54.651Z,7.00
2019-02-26T02:34:26.494Z,7.00
2019-02-26T02:36:52.622Z,6.90
2019-02-26T02:39:20.950Z,7.80
2019-02-26T02:41:51.653Z,5.83
2019-02-26T02:44:20.574Z,4.60
2019-02-26T02:46:49.306Z,5.00
2019-02-26T02:49:17.958Z,5.40
2019-02-26T02:51:45.518Z,4.47
2019-02-26T02:54:15.344Z,5.17
2019-02-26T02:56:44.256Z,4.70
2019-02-26T02:59:14.000Z,5.60
2019-02-26T03:01:42.596Z,5.00
2019-02-26T03:04:17.285Z,3.93
2019-02-26T03:06:42.705Z,3.67
2019-02-26T03:09:15.296Z,4.40
2019-02-26T03:11:46.046Z,4.70
2019-02-26T03:14:13.836Z,4.27
2019-02-26T03:16:45.023Z,4.80
2019-02-26T03:19:14.505Z,4.20
2019-02-26T03:21:42.578Z,4.30
2019-02-26T03:24:11.465Z,4.40
2019-02-26T03:26:38.833Z,4.40
2019-02-26T03:29:06.190Z,4.87
2019-02-26T03:31:35.226Z,5.33
2019-02-26T03:34:08.739Z,3.87
2019-02-26T03:36:34.236Z,3.40
2019-02-26T03:39:03.301Z,4.03
2019-02-26T03:41:33.016Z,3.40
2019-02-26T03:44:03.256Z,3.57
2019-02-26T03:46:30.085Z,3.90
2019-02-26T03:49:02.508Z,4.80
2019-02-26T03:51:27.389Z,4.30
2019-02-26T03:53:54.895Z,4.55
2019-02-26T03:56:22.703Z,4.03
2019-02-26T03:58:54.475Z,4.60
2019-02-26T04:01:21.585Z,4.97
2019-02-26T04:03:49.300Z,3.67
2019-02-26T04:06:17.024Z,4.60
2019-02-26T04:08:46.194Z,4.50
2019-02-26T04:11:16.536Z,4.25
2019-02-26T04:13:46.085Z,4.20
2019-02-26T04:16:13.208Z,5.62
2019-02-26T04:18:40.992Z,6.22
2019-02-26T04:21:09.358Z,7.20
2019-02-26T04:23:38.955Z,5.28
2019-02-26T04:26:20.885Z,5.08
2019-02-26T04:28:53.903Z,4.87
2019-02-26T04:32:15.185Z,4.53
2019-02-26T04:34:57.607Z,4.03
2019-02-26T04:38:15.028Z,3.15
2019-02-26T04:41:03.044Z,2.40
2019-02-26T04:44:12.553Z,2.72
2019-02-26T04:46:57.123Z,2.85
2019-02-26T04:49:28.103Z,2.42
2019-02-26T04:51:55.328Z,2.52
2019-02-26T04:54:26.349Z,2.27
2019-02-26T04:56:53.023Z,2.50
2019-02-26T04:59:20.677Z,2.60
2019-02-26T05:01:49.912Z,2.37
2019-02-26T05:04:18.548Z,2.58
2019-02-26T05:06:46.048Z,3.27
2019-02-26T05:09:13.748Z,3.08
2019-02-26T05:11:41.475Z,4.05
2019-02-26T05:14:11.606Z,3.92
2019-02-26T05:16:40.341Z,4.50
2019-02-26T05:19:10.407Z,4.33
2019-02-26T05:21:37.943Z,3.70
2019-02-26T05:24:05.687Z,3.62
2019-02-26T05:26:33.906Z,3.10
2019-02-26T05:29:03.069Z,2.50
2019-02-26T05:31:33.176Z,5.42
2019-02-26T05:34:00.222Z,8.40
2019-02-26T05:36:28.391Z,9.50
2019-02-26T05:38:59.163Z,11.20
2019-02-26T05:41:25.950Z,10.10
2019-02-26T05:44:12.899Z,9.85
2019-02-26T05:46:41.010Z,9.03
2019-02-26T05:49:11.768Z,9.00
2019-02-26T05:51:38.529Z,8.83
2019-02-26T05:54:08.070Z,9.05
2019-02-26T05:56:37.230Z,7.70
2019-02-26T05:59:09.080Z,9.28
2019-02-26T06:01:34.878Z,5.87
2019-02-26T06:04:04.841Z,6.25
2019-02-26T06:06:32.281Z,5.05
2019-02-26T06:09:00.445Z,6.58
2019-02-26T06:11:34.041Z,8.88
2019-02-26T06:14:06.676Z,12.37
2019-02-26T06:16:31.532Z,15.38
2019-02-26T06:18:59.490Z,17.05
2019-02-26T06:21:26.993Z,9.25
2019-02-26T06:23:54.452Z,8.08
2019-02-26T06:26:22.503Z,5.92
2019-02-26T06:28:52.834Z,5.92
2019-02-26T06:31:22.123Z,3.90
2019-02-26T06:33:50.722Z,3.27
2019-02-26T06:36:19.367Z,3.33
2019-02-26T06:38:49.714Z,3.47
2019-02-26T06:41:18.199Z,2.92
2019-02-26T06:43:49.967Z,3.77
2019-02-26T06:46:16.679Z,3.80
2019-02-26T06:48:44.363Z,3.72
2019-02-26T06:51:11.884Z,3.90
2019-02-26T06:53:40.356Z,5.08
2019-02-26T06:56:08.080Z,5.22
2019-02-26T06:58:36.224Z,5.22
2019-02-26T07:01:04.804Z,6.25
2019-02-26T07:03:32.578Z,5.90
2019-02-26T07:06:03.163Z,4.83
2019-02-26T07:08:31.041Z,6.10
2019-02-26T07:10:59.101Z,6.45
2019-02-26T07:13:26.820Z,6.47
2019-02-26T07:15:55.383Z,5.80
2019-02-26T07:18:22.842Z,7.17
2019-02-26T07:20:54.566Z,6.60
2019-02-26T07:23:20.230Z,10.18
2019-02-26T07:25:47.722Z,11.97
2019-02-26T07:28:17.676Z,15.00
2019-02-26T07:30:46.933Z,17.15
2019-02-26T07:33:15.663Z,14.80
2019-02-26T07:35:43.243Z,9.93
2019-02-26T07:38:10.754Z,10.72
2019-02-26T07:40:40.406Z,14.05
2019-02-26T07:43:11.548Z,20.25
2019-02-26T07:45:37.271Z,19.67
2019-02-26T07:48:04.617Z,20.02
2019-02-26T07:50:37.480Z,19.60
2019-02-26T07:53:01.787Z,19.98
2019-02-26T07:55:32.231Z,16.93
2019-02-26T07:57:58.567Z,15.98
2019-02-26T08:00:26.316Z,14.78
2019-02-26T08:02:56.973Z,15.70
2019-02-26T08:05:26.285Z,14.85
2019-02-26T08:07:56.286Z,15.25
2019-02-26T08:10:23.131Z,15.13
2019-02-26T08:12:50.622Z,14.55
2019-02-26T08:15:18.128Z,14.70
2019-02-26T08:17:47.890Z,15.10
2019-02-26T08:20:15.186Z,13.83
2019-02-26T08:22:43.064Z,12.95
2019-02-26T08:25:10.853Z,13.38
2019-02-26T08:27:38.876Z,13.40
2019-02-26T08:30:14.832Z,12.70
2019-02-26T08:32:42.508Z,13.10
2019-02-26T08:35:10.934Z,11.95
2019-02-26T08:37:38.496Z,11.60
2019-02-26T08:40:09.552Z,12.40
2019-02-26T08:42:37.319Z,11.68
2019-02-26T08:45:06.775Z,12.43
2019-02-26T08:47:34.873Z,12.80
2019-02-26T08:50:04.735Z,12.73
2019-02-26T08:52:32.070Z,12.10
2019-02-26T08:55:00.237Z,12.82
2019-02-26T08:57:28.096Z,15.28
2019-02-26T08:59:55.652Z,14.33
2019-02-26T09:02:23.015Z,13.93
2019-02-26T09:04:50.775Z,16.85
2019-02-26T09:07:19.557Z,13.55
2019-02-26T09:09:49.587Z,16.65
2019-02-26T09:12:17.516Z,18.10
2019-02-26T09:14:48.113Z,17.32
2019-02-26T09:17:18.779Z,18.47
2019-02-26T09:19:45.385Z,19.50
2019-02-26T09:22:14.961Z,19.20
2019-02-26T09:24:42.105Z,17.20
2019-02-26T09:27:09.475Z,17.40
2019-02-26T09:29:39.257Z,17.90
2019-02-26T09:32:07.338Z,21.65
2019-02-26T09:34:37.979Z,19.35
2019-02-26T09:37:05.784Z,19.53
2019-02-26T09:39:36.389Z,19.90
2019-02-26T09:42:06.056Z,18.30
2019-02-26T09:44:35.754Z,17.53
2019-02-26T09:47:05.443Z,18.57
2019-02-26T09:49:33.724Z,16.83
2019-02-26T09:52:03.815Z,16.73
2019-02-26T09:54:32.290Z,14.53
2019-02-26T09:56:59.957Z,15.00
2019-02-26T09:59:29.025Z,14.87
2019-02-26T10:01:58.791Z,14.07
2019-02-26T10:04:28.785Z,15.13
2019-02-26T10:06:56.228Z,14.70
2019-02-26T10:09:23.727Z,15.07
2019-02-26T10:11:51.575Z,15.90
2019-02-26T10:14:20.295Z,18.33
2019-02-26T10:16:50.063Z,16.03
2019-02-26T10:19:19.521Z,15.83
2019-02-26T10:21:47.205Z,16.00
2019-02-26T10:24:14.682Z,16.70
2019-02-26T10:26:43.341Z,16.80
2019-02-26T10:29:10.910Z,16.17
2019-02-26T10:31:41.072Z,13.57
2019-02-26T10:34:10.581Z,14.73
2019-02-26T10:36:40.663Z,14.67
2019-02-26T10:39:08.471Z,13.90
2019-02-26T10:41:37.533Z,13.57
2019-02-26T10:44:05.997Z,14.87
2019-02-26T10:46:34.606Z,13.97
2019-02-26T10:49:02.746Z,13.30
2019-02-26T10:51:31.227Z,12.67
2019-02-26T10:53:59.952Z,12.00
2019-02-26T10:56:30.578Z,13.37
2019-02-26T10:59:02.932Z,13.60
2019-02-26T11:01:28.752Z,12.90
2019-02-26T11:03:57.570Z,13.70
2019-02-26T11:06:24.948Z,13.33
2019-02-26T11:08:53.123Z,13.30
2019-02-26T11:11:22.000Z,13.47
2019-02-26T11:13:53.242Z,12.80
2019-02-26T11:16:24.872Z,11.67
2019-02-26T11:18:48.320Z,12.17
2019-02-26T11:21:15.783Z,14.03
2019-02-26T11:23:44.053Z,14.27
2019-02-26T11:26:15.222Z,13.00
2019-02-26T11:28:43.601Z,13.30
2019-02-26T11:31:13.943Z,13.60
2019-02-26T11:33:40.967Z,14.77
2019-02-26T11:36:10.657Z,14.00
2019-02-26T11:38:40.340Z,14.13
2019-02-26T11:41:07.934Z,12.80
2019-02-26T11:43:35.705Z,12.40
2019-02-26T11:46:03.818Z,13.13
2019-02-26T11:48:33.232Z,10.60
2019-02-26T11:51:00.994Z,10.10
2019-02-26T11:53:30.305Z,8.80
2019-02-26T11:56:00.034Z,10.03
2019-02-26T11:58:27.548Z,9.33
2019-02-26T12:00:57.461Z,8.67
2019-02-26T12:03:27.482Z,8.90
2019-02-26T12:05:56.624Z,9.90
2019-02-26T12:08:25.751Z,10.20
2019-02-26T12:10:57.515Z,11.00
2019-02-26T12:13:25.091Z,9.37
2019-02-26T12:15:53.124Z,11.70
2019-02-26T12:18:22.490Z,11.13
2019-02-26T12:20:50.169Z,10.90
2019-02-26T12:23:22.071Z,11.20
2019-02-26T12:25:47.152Z,9.77
2019-02-26T12:28:16.069Z,10.70
2019-02-26T12:30:46.120Z,9.73
2019-02-26T12:33:14.818Z,10.43
2019-02-26T12:35:43.633Z,9.73
2019-02-26T12:38:18.019Z,9.73
2019-02-26T12:40:44.680Z,9.97
2019-02-26T12:43:12.528Z,9.63
2019-02-26T12:45:40.830Z,10.90
2019-02-26T12:48:10.263Z,12.43
2019-02-26T12:50:40.471Z,11.80
2019-02-26T12:53:09.478Z,12.00
2019-02-26T12:55:39.115Z,12.17
2019-02-26T12:58:07.328Z,10.13
2019-02-26T13:00:37.662Z,11.00
2019-02-26T13:03:05.565Z,10.93
2019-02-26T13:05:35.227Z,11.60
2019-02-26T13:08:03.713Z,10.23
2019-02-26T13:10:31.360Z,11.40
2019-02-26T13:13:02.330Z,12.00
2019-02-26T13:15:29.458Z,11.67
2019-02-26T13:17:57.250Z,12.13
2019-02-26T13:20:24.787Z,13.37
2019-02-26T13:22:56.518Z,13.43
2019-02-26T13:25:26.390Z,12.87
2019-02-26T13:27:51.669Z,11.93
2019-02-26T13:30:20.463Z,10.70
2019-02-26T13:32:56.048Z,9.07
2019-02-26T13:35:18.381Z,9.53
2019-02-26T13:37:46.605Z,9.33
2019-02-26T13:40:15.383Z,9.67
2019-02-26T13:42:49.935Z,9.10
2019-02-26T13:45:14.942Z,11.03
2019-02-26T13:47:42.530Z,9.20
2019-02-26T13:50:12.369Z,8.80
2019-02-26T13:52:39.757Z,9.53
2019-02-26T13:55:07.980Z,9.87
2019-02-26T13:57:35.479Z,8.57
2019-02-26T14:00:03.594Z,9.50
2019-02-26T14:02:31.504Z,9.90
2019-02-26T14:04:59.395Z,8.90
2019-02-26T14:07:26.737Z,8.70
2019-02-26T14:09:54.094Z,8.70
2019-02-26T14:12:21.455Z,10.10
2019-02-26T14:14:48.833Z,9.50
2019-02-26T14:17:16.572Z,9.17
2019-02-26T14:19:44.041Z,8.90
2019-02-26T14:22:11.688Z,8.47
2019-02-26T14:24:39.055Z,11.50
2019-02-26T14:27:07.013Z,9.50
2019-02-26T14:29:34.510Z,10.33
2019-02-26T14:32:02.559Z,11.20
2019-02-26T14:34:29.864Z,10.87
2019-02-26T14:36:57.474Z,11.23
2019-02-26T14:39:24.973Z,10.17
2019-02-26T14:41:52.684Z,9.77
2019-02-26T14:44:20.166Z,10.93
2019-02-26T14:46:47.695Z,11.30
2019-02-26T14:49:16.484Z,11.63
2019-02-26T14:51:43.947Z,12.00
2019-02-26T14:54:11.439Z,11.80
2019-02-26T14:56:39.036Z,11.47
2019-02-26T14:59:06.567Z,13.40
2019-02-26T15:01:34.069Z,13.20
2019-02-26T15:04:01.445Z,13.47
2019-02-26T15:06:29.327Z,12.40
2019-02-26T15:08:57.195Z,11.83
2019-02-26T15:11:24.552Z,11.20
2019-02-26T15:13:52.007Z,11.60
2019-02-26T15:16:19.731Z,12.93
2019-02-26T15:18:47.198Z,12.40
2019-02-26T15:21:14.695Z,12.60
2019-02-26T15:23:42.176Z,13.17
2019-02-26T15:26:10.175Z,12.87
2019-02-26T15:28:37.701Z,10.97
2019-02-26T15:31:05.150Z,13.57
2019-02-26T15:33:32.627Z,12.57
2019-02-26T15:36:00.012Z,11.63
2019-02-26T15:38:27.803Z,13.40
2019-02-26T15:40:55.583Z,12.30
2019-02-26T15:43:24.522Z,13.83
2019-02-26T15:45:53.111Z,15.17
2019-02-26T15:48:20.472Z,13.33
2019-02-26T15:50:47.883Z,13.53
2019-02-26T15:53:15.280Z,13.10
2019-02-26T15:55:43.581Z,14.10
2019-02-26T15:58:11.674Z,12.90
2019-02-26T16:00:39.590Z,13.00
2019-02-26T16:03:07.445Z,13.33
2019-02-26T16:05:34.967Z,12.23
2019-02-26T16:08:02.879Z,12.10
2019-02-26T16:10:30.922Z,11.23
2019-02-26T16:13:03.627Z,13.40
2019-02-26T16:15:31.874Z,13.40
2019-02-26T16:17:59.667Z,12.77
2019-02-26T16:20:27.393Z,12.60
2019-02-26T16:22:55.260Z,13.08
2019-02-26T16:25:22.758Z,12.93
2019-02-26T16:27:51.662Z,12.20
2019-02-26T16:30:20.442Z,12.93
2019-02-26T16:32:48.931Z,13.03
2019-02-26T16:35:16.807Z,12.37
2019-02-26T16:37:44.149Z,12.77
2019-02-26T16:40:11.777Z,11.47
2019-02-26T16:42:39.669Z,12.80
2019-02-26T16:45:10.650Z,11.27
2019-02-26T16:47:38.677Z,9.17
2019-02-26T16:50:12.898Z,11.93
2019-02-26T16:52:37.570Z,12.23
2019-02-26T16:55:05.592Z,10.73
2019-02-26T16:57:33.182Z,10.07
2019-02-26T17:00:00.868Z,9.10
2019-02-26T17:02:28.395Z,8.03
2019-02-26T17:04:55.919Z,7.37
2019-02-26T17:07:23.682Z,20.47
2019-02-26T17:09:55.466Z,31.33
2019-02-26T17:12:21.921Z,31.23
2019-02-26T17:14:50.670Z,54.67
2019-02-26T17:17:19.139Z,17.37
2019-02-26T17:19:49.093Z,12.63
2019-02-26T17:22:16.745Z,8.73
2019-02-26T17:24:44.264Z,10.57
2019-02-26T17:27:12.013Z,39.70
2019-02-26T17:29:39.816Z,110.40
2019-02-26T17:32:07.131Z,53.13
2019-02-26T17:34:34.910Z,27.93
2019-02-26T17:37:03.854Z,13.30
2019-02-26T17:39:31.673Z,12.77
2019-02-26T17:41:59.829Z,31.43
2019-02-26T17:44:27.609Z,17.20
2019-02-26T17:46:55.511Z,13.83
2019-02-26T17:49:22.836Z,14.97
2019-02-26T17:51:50.464Z,17.87
2019-02-26T17:54:18.459Z,18.80
2019-02-26T17:56:45.853Z,17.23
2019-02-26T17:59:16.622Z,8.13
2019-02-26T18:01:42.689Z,7.73
2019-02-26T18:04:10.320Z,8.67
2019-02-26T18:06:37.835Z,10.20
2019-02-26T18:09:05.355Z,11.57
2019-02-26T18:11:36.539Z,12.00
2019-02-26T18:14:03.987Z,13.63
2019-02-26T18:16:34.373Z,18.30
2019-02-26T18:19:01.823Z,20.03
2019-02-26T18:21:29.795Z,21.90
2019-02-26T18:23:57.166Z,20.60
2019-02-26T18:26:24.937Z,21.70
2019-02-26T18:28:53.203Z,20.03
2019-02-26T18:31:26.396Z,22.20
2019-02-26T18:33:50.250Z,18.27
2019-02-26T18:36:18.042Z,15.60
2019-02-26T18:38:48.324Z,15.07
2019-02-26T18:41:15.189Z,14.97
2019-02-26T18:43:47.172Z,15.73
2019-02-26T18:46:12.742Z,19.80
2019-02-26T18:48:40.876Z,17.40
2019-02-26T18:51:08.446Z,14.57
2019-02-26T18:53:36.266Z,13.73
2019-02-26T18:56:04.788Z,12.37
2019-02-26T18:58:32.708Z,11.90
2019-02-26T19:01:00.195Z,17.80
2019-02-26T19:03:27.697Z,16.83
2019-02-26T19:05:55.942Z,16.40
2019-02-26T19:08:24.492Z,16.70
2019-02-26T19:10:53.304Z,22.93
2019-02-26T19:13:21.651Z,16.67
2019-02-26T19:15:49.139Z,20.77
2019-02-26T19:18:16.570Z,20.97
2019-02-26T19:20:44.417Z,19.87
2019-02-26T19:23:13.487Z,16.73
2019-02-26T19:25:41.720Z,9.50
2019-02-26T19:28:09.936Z,9.90
2019-02-26T19:30:37.607Z,7.60
2019-02-26T19:33:05.209Z,5.73
2019-02-26T19:35:38.134Z,7.77
2019-02-26T19:38:02.344Z,8.50
2019-02-26T19:40:32.952Z,8.50
2019-02-26T19:43:00.541Z,12.63
2019-02-26T19:45:28.327Z,12.90
2019-02-26T19:47:56.830Z,12.10
2019-02-26T19:50:24.561Z,11.70
2019-02-26T19:52:57.022Z,12.87
2019-02-26T19:55:24.232Z,12.97
2019-02-26T19:57:51.920Z,10.13
2019-02-26T20:00:20.533Z,9.60
2019-02-26T20:02:48.812Z,10.70
2019-02-26T20:05:16.621Z,10.80
2019-02-26T20:07:44.170Z,10.10
2019-02-26T20:10:12.851Z,9.97
2019-02-26T20:12:41.887Z,9.07
2019-02-26T20:15:10.710Z,11.77
2019-02-26T20:17:38.469Z,8.90
2019-02-26T20:20:07.221Z,9.60
2019-02-26T20:22:34.783Z,13.70
2019-02-26T20:25:02.557Z,13.23
2019-02-26T20:27:30.032Z,14.17
2019-02-26T20:29:57.692Z,11.90
2019-02-26T20:32:28.781Z,10.90
2019-02-26T20:34:54.960Z,10.90
2019-02-26T20:37:24.425Z,10.73
2019-02-26T20:39:52.436Z,10.90
2019-02-26T20:42:20.015Z,10.10
2019-02-26T20:44:49.152Z,8.20
2019-02-26T20:47:17.061Z,8.50
2019-02-26T20:49:46.307Z,10.07
2019-02-26T20:52:14.129Z,11.00
2019-02-26T20:54:44.456Z,11.03
2019-02-26T20:57:11.414Z,10.00
2019-02-26T20:59:40.370Z,7.13
2019-02-26T21:02:07.904Z,7.47
2019-02-26T21:04:35.575Z,7.60
2019-02-26T21:07:03.094Z,9.13
2019-02-26T21:09:31.114Z,9.40
2019-02-26T21:11:58.908Z,13.10
2019-02-26T21:14:26.562Z,18.30
2019-02-26T21:16:55.761Z,26.20
2019-02-26T21:19:23.927Z,35.07
2019-02-26T21:21:51.466Z,41.63
2019-02-26T21:24:19.250Z,31.50
2019-02-26T21:26:46.793Z,27.70
2019-02-26T21:29:14.161Z,20.10
2019-02-26T21:31:41.528Z,17.57
2019-02-26T21:34:09.333Z,16.50
2019-02-26T21:36:36.768Z,12.90
2019-02-26T21:39:05.583Z,13.20
2019-02-26T21:41:34.940Z,10.07
2019-02-26T21:44:02.614Z,8.10
2019-02-26T21:46:29.987Z,8.23
2019-02-26T21:48:57.592Z,9.60
2019-02-26T21:51:25.705Z,9.73
2019-02-26T21:53:53.439Z,11.00
2019-02-26T21:56:20.939Z,8.53
2019-02-26T21:58:48.872Z,9.10
2019-02-26T22:01:16.238Z,8.23
2019-02-26T22:03:43.610Z,7.40
2019-02-26T22:06:11.574Z,7.93
2019-02-26T22:08:39.510Z,9.37
2019-02-26T22:11:07.366Z,10.77
2019-02-26T22:13:35.111Z,11.60
2019-02-26T22:16:02.493Z,13.20
2019-02-26T22:18:33.364Z,12.40
2019-02-26T22:20:59.693Z,11.50
2019-02-26T22:23:27.298Z,12.40
2019-02-26T22:25:55.406Z,11.87
2019-02-26T22:28:23.214Z,11.10
2019-02-26T22:30:55.656Z,11.13
2019-02-26T22:33:20.682Z,10.90
2019-02-26T22:35:48.058Z,10.20
2019-02-26T22:38:16.104Z,9.57
2019-02-26T22:40:43.728Z,7.47
2019-02-26T22:43:13.427Z,8.13
2019-02-26T22:45:40.871Z,9.30
2019-02-26T22:48:08.711Z,9.70
2019-02-26T22:50:36.551Z,8.27
2019-02-26T22:53:04.589Z,8.00
2019-02-26T22:55:32.564Z,8.37
2019-02-26T22:58:02.567Z,10.10
2019-02-26T23:00:53.521Z,9.60
2019-02-26T23:03:22.766Z,10.00
2019-02-26T23:05:51.795Z,10.90
2019-02-26T23:08:19.355Z,9.23
2019-02-26T23:10:46.984Z,11.40
2019-02-26T23:13:16.404Z,11.60
2019-02-26T23:15:45.864Z,11.57
2019-02-26T23:18:14.824Z,9.90
2019-02-26T23:20:43.366Z,9.07
2019-02-26T23:23:11.553Z,7.83
2019-02-26T23:25:39.014Z,7.80
2019-02-26T23:28:06.722Z,8.70
2019-02-26T23:30:34.549Z,9.77
2019-02-26T23:33:02.293Z,12.60
2019-02-26T23:35:29.948Z,10.53
2019-02-26T23:37:57.622Z,9.87
2019-02-26T23:40:27.486Z,8.70
2019-02-26T23:42:55.338Z,7.90
2019-02-26T23:45:24.131Z,8.50
2019-02-26T23:47:52.589Z,6.30
2019-02-26T23:50:20.246Z,6.27
2019-02-26T23:52:47.712Z,5.33
2019-02-26T23:55:15.619Z,5.40
2019-02-26T23:57:43.066Z,5.37
